sensor_id;sensor_type;location;lat;lon;timestamp;temperature;humidity
3226;DHT22;1625;49.884;8.666;2023-02-08T05:06:04;-1.90;99.90
3226;DHT22;1625;49.884;8.666;2023-02-08T05:08:29;-1.90;99.90
3226;DHT22;1625;49.884;8.666;2023-02-08T05:10:55;-1.90;99.90
3226;DHT22;1625;49.884;8.666;2023-02-08T05:13:20;-1.90;99.90
3226;DHT22;1625;49.884;8.666;2023-02-08T05:15:46;-1.90;99.90
3226;DHT22;1625;49.884;8.666;2023-02-08T05:18:11;-1.90;99.90
3226;DHT22;1625;49.884;8.666;2023-02-08T05:20:37;-1.90;99.90
3226;DHT22;1625;49.884;8.666;2023-02-08T05:23:02;-1.90;99.90
3226;DHT22;1625;49.884;8.666;2023-02-08T05:25:28;-2.00;99.90
3226;DHT22;1625;49.884;8.666;2023-02-08T05:27:53;-1.90;99.90
3226;DHT22;1625;49.884;8.666;2023-02-08T05:30:19;-2.00;99.90
3226;DHT22;1625;49.884;8.666;2023-02-08T05:32:44;-2.00;99.90
3226;DHT22;1625;49.884;8.666;2023-02-08T05:35:10;-2.10;99.90
3226;DHT22;1625;49.884;8.666;2023-02-08T05:37:35;-2.20;99.90
3226;DHT22;1625;49.884;8.666;2023-02-08T05:40:01;-2.30;99.90
3226;DHT22;1625;49.884;8.666;2023-02-08T05:42:27;-2.30;99.90
3226;DHT22;1625;49.884;8.666;2023-02-08T05:44:52;-2.20;99.90
3226;DHT22;1625;49.884;8.666;2023-02-08T05:47:18;-2.10;99.90
3226;DHT22;1625;49.884;8.666;2023-02-08T05:49:43;-2.10;99.90
3226;DHT22;1625;49.884;8.666;2023-02-08T05:52:09;-2.10;99.90
3226;DHT22;1625;49.884;8.666;2023-02-08T05:54:42;-2.00;99.90
3226;DHT22;1625;49.884;8.666;2023-02-08T05:57:08;-2.00;99.90
3226;DHT22;1625;49.884;8.666;2023-02-08T05:59:33;-2.10;99.90
3226;DHT22;1625;49.884;8.666;2023-02-08T06:01:59;-2.00;99.90
3226;DHT22;1625;49.884;8.666;2023-02-08T06:04:24;-2.00;99.90
3226;DHT22;1625;49.884;8.666;2023-02-08T06:06:50;-2.00;99.90
3226;DHT22;1625;49.884;8.666;2023-02-08T06:09:15;-2.00;99.90
3226;DHT22;1625;49.884;8.666;2023-02-08T06:11:41;-2.10;99.90
3226;DHT22;1625;49.884;8.666;2023-02-08T06:14:06;-2.10;99.90
3226;DHT22;1625;49.884;8.666;2023-02-08T06:16:32;-2.10;99.90
3226;DHT22;1625;49.884;8.666;2023-02-08T06:18:57;-2.00;99.90
3226;DHT22;1625;49.884;8.666;2023-02-08T06:21:23;-2.00;99.90
3226;DHT22;1625;49.884;8.666;2023-02-08T06:23:48;-2.00;99.90
3226;DHT22;1625;49.884;8.666;2023-02-08T06:26:14;-2.00;99.90
3226;DHT22;1625;49.884;8.666;2023-02-08T06:28:40;-2.00;99.90
3226;DHT22;1625;49.884;8.666;2023-02-08T06:31:06;-2.00;99.90
3226;DHT22;1625;49.884;8.666;2023-02-08T06:33:31;-2.00;99.90
3226;DHT22;1625;49.884;8.666;2023-02-08T06:36:01;-2.00;99.90
3226;DHT22;1625;49.884;8.666;2023-02-08T06:38:27;-2.10;99.90
3226;DHT22;1625;49.884;8.666;2023-02-08T06:40:52;-2.00;99.90
3226;DHT22;1625;49.884;8.666;2023-02-08T06:43:18;-2.00;99.90
3226;DHT22;1625;49.884;8.666;2023-02-08T06:45:44;-2.00;99.90
3226;DHT22;1625;49.884;8.666;2023-02-08T06:51:37;-2.00;99.90
3226;DHT22;1625;49.884;8.666;2023-02-08T06:54:03;-2.00;99.90
3226;DHT22;1625;49.884;8.666;2023-02-08T06:56:29;-2.00;99.90
3226;DHT22;1625;49.884;8.666;2023-02-08T06:58:57;-2.00;99.90
3226;DHT22;1625;49.884;8.666;2023-02-08T07:01:23;-1.90;99.90
3226;DHT22;1625;49.884;8.666;2023-02-08T07:03:48;-1.90;99.90
3226;DHT22;1625;49.884;8.666;2023-02-08T07:07:02;-2.00;99.90
3226;DHT22;1625;49.884;8.666;2023-02-08T07:09:56;-2.00;99.90
3226;DHT22;1625;49.884;8.666;2023-02-08T07:12:22;-1.90;99.90
3226;DHT22;1625;49.884;8.666;2023-02-08T07:24:51;-1.80;99.90
3226;DHT22;1625;49.884;8.666;2023-02-08T07:27:16;-1.80;99.90
3226;DHT22;1625;49.884;8.666;2023-02-08T07:29:42;-1.70;99.90
3226;DHT22;1625;49.884;8.666;2023-02-08T07:32:09;-1.70;99.90
3226;DHT22;1625;49.884;8.666;2023-02-08T07:34:36;-1.70;99.90
3226;DHT22;1625;49.884;8.666;2023-02-08T07:37:02;-1.70;99.90
3226;DHT22;1625;49.884;8.666;2023-02-08T07:39:28;-1.70;99.90
3226;DHT22;1625;49.884;8.666;2023-02-08T07:41:55;-1.80;99.90
3226;DHT22;1625;49.884;8.666;2023-02-08T07:44:21;-1.70;99.90
3226;DHT22;1625;49.884;8.666;2023-02-08T07:46:50;-1.70;99.90
3226;DHT22;1625;49.884;8.666;2023-02-08T07:49:23;-1.60;99.90
3226;DHT22;1625;49.884;8.666;2023-02-08T07:51:49;-0.30;99.90
3226;DHT22;1625;49.884;8.666;2023-02-08T07:54:14;-1.60;99.90
3226;DHT22;1625;49.884;8.666;2023-02-08T07:56:40;-1.60;99.90
3226;DHT22;1625;49.884;8.666;2023-02-08T07:59:06;-1.60;99.90
3226;DHT22;1625;49.884;8.666;2023-02-08T08:01:32;-1.50;99.90
3226;DHT22;1625;49.884;8.666;2023-02-08T08:03:57;-1.50;99.90
3226;DHT22;1625;49.884;8.666;2023-02-08T08:06:24;-1.40;99.90
3226;DHT22;1625;49.884;8.666;2023-02-08T08:08:50;-1.30;99.90
3226;DHT22;1625;49.884;8.666;2023-02-08T08:11:19;-1.30;99.90
3226;DHT22;1625;49.884;8.666;2023-02-08T08:13:45;-1.30;99.90
3226;DHT22;1625;49.884;8.666;2023-02-08T08:16:11;-1.20;99.90
3226;DHT22;1625;49.884;8.666;2023-02-08T08:18:40;-1.00;99.90
3226;DHT22;1625;49.884;8.666;2023-02-08T08:21:05;-1.00;99.90
3226;DHT22;1625;49.884;8.666;2023-02-08T08:23:31;-1.00;99.90
3226;DHT22;1625;49.884;8.666;2023-02-08T08:25:58;-0.90;99.90
3226;DHT22;1625;49.884;8.666;2023-02-08T08:28:24;-0.20;99.90
3226;DHT22;1625;49.884;8.666;2023-02-08T08:30:49;-0.80;99.90
3226;DHT22;1625;49.884;8.666;2023-02-08T08:33:15;-0.70;99.90
3226;DHT22;1625;49.884;8.666;2023-02-08T08:35:41;-0.70;99.90
3226;DHT22;1625;49.884;8.666;2023-02-08T08:38:08;-0.70;99.90
3226;DHT22;1625;49.884;8.666;2023-02-08T08:40:33;-0.70;99.90
3226;DHT22;1625;49.884;8.666;2023-02-08T08:42:59;-0.50;99.90
3226;DHT22;1625;49.884;8.666;2023-02-08T08:45:25;-0.50;99.90
3226;DHT22;1625;49.884;8.666;2023-02-08T08:47:50;0.60;99.90
3226;DHT22;1625;49.884;8.666;2023-02-08T08:50:16;-0.30;99.90
3226;DHT22;1625;49.884;8.666;2023-02-08T08:52:41;-0.20;99.90
3226;DHT22;1625;49.884;8.666;2023-02-08T08:55:07;-0.10;99.90
3226;DHT22;1625;49.884;8.666;2023-02-08T08:57:33;-0.10;99.90
3226;DHT22;1625;49.884;8.666;2023-02-08T09:00:01;0.10;99.90
3226;DHT22;1625;49.884;8.666;2023-02-08T09:02:26;0.20;99.90
3226;DHT22;1625;49.884;8.666;2023-02-08T09:04:52;0.20;99.90
3226;DHT22;1625;49.884;8.666;2023-02-08T09:07:17;0.30;99.90
3226;DHT22;1625;49.884;8.666;2023-02-08T09:09:43;0.40;99.90
3226;DHT22;1625;49.884;8.666;2023-02-08T09:12:15;0.40;99.90
3226;DHT22;1625;49.884;8.666;2023-02-08T09:14:41;0.40;99.90
3226;DHT22;1625;49.884;8.666;2023-02-08T09:17:09;0.50;99.90
3226;DHT22;1625;49.884;8.666;2023-02-08T09:19:35;0.60;99.90
3226;DHT22;1625;49.884;8.666;2023-02-08T09:25:27;0.70;99.90
3226;DHT22;1625;49.884;8.666;2023-02-08T09:27:52;0.70;99.90
3226;DHT22;1625;49.884;8.666;2023-02-08T09:30:18;0.70;99.90
3226;DHT22;1625;49.884;8.666;2023-02-08T09:32:43;0.70;99.90
3226;DHT22;1625;49.884;8.666;2023-02-08T09:35:12;1.70;99.90
3226;DHT22;1625;49.884;8.666;2023-02-08T09:37:39;0.80;99.90
3226;DHT22;1625;49.884;8.666;2023-02-08T09:40:36;1.00;99.90
3226;DHT22;1625;49.884;8.666;2023-02-08T09:43:25;1.00;99.90
3226;DHT22;1625;49.884;8.666;2023-02-08T10:50:04;2.00;99.90
3226;DHT22;1625;49.884;8.666;2023-02-08T11:01:59;2.30;99.90
3226;DHT22;1625;49.884;8.666;2023-02-08T11:04:24;2.40;99.90
3226;DHT22;1625;49.884;8.666;2023-02-08T11:06:50;2.50;99.90
3226;DHT22;1625;49.884;8.666;2023-02-08T11:09:29;2.40;99.90
3226;DHT22;1625;49.884;8.666;2023-02-08T11:12:00;2.50;99.90
3226;DHT22;1625;49.884;8.666;2023-02-08T11:22:15;2.70;99.90
3226;DHT22;1625;49.884;8.666;2023-02-08T11:24:43;2.80;99.90
3226;DHT22;1625;49.884;8.666;2023-02-08T11:27:35;2.90;99.90
3226;DHT22;1625;49.884;8.666;2023-02-08T11:32:44;3.10;99.90
3226;DHT22;1625;49.884;8.666;2023-02-08T11:35:24;3.30;99.90
3226;DHT22;1625;49.884;8.666;2023-02-08T11:37:52;3.30;99.90
3226;DHT22;1625;49.884;8.666;2023-02-08T11:40:22;3.30;99.90
3226;DHT22;1625;49.884;8.666;2023-02-08T11:42:49;3.30;99.90
3226;DHT22;1625;49.884;8.666;2023-02-08T11:45:21;3.30;99.90
3226;DHT22;1625;49.884;8.666;2023-02-08T11:47:47;3.40;99.90
3226;DHT22;1625;49.884;8.666;2023-02-08T11:52:58;3.30;99.90
3226;DHT22;1625;49.884;8.666;2023-02-08T11:55:27;3.30;99.90
3226;DHT22;1625;49.884;8.666;2023-02-08T11:57:59;3.40;99.90
3226;DHT22;1625;49.884;8.666;2023-02-08T12:00:30;3.50;99.90
3226;DHT22;1625;49.884;8.666;2023-02-08T12:03:29;3.50;99.90
3226;DHT22;1625;49.884;8.666;2023-02-08T12:35:36;4.10;97.90
3226;DHT22;1625;49.884;8.666;2023-02-08T12:50:54;4.30;96.80
3226;DHT22;1625;49.884;8.666;2023-02-08T12:53:42;4.30;97.10
3226;DHT22;1625;49.884;8.666;2023-02-08T12:56:15;4.40;96.20
3226;DHT22;1625;49.884;8.666;2023-02-08T12:58:51;4.40;95.40
3226;DHT22;1625;49.884;8.666;2023-02-08T13:04:43;4.40;94.80
3226;DHT22;1625;49.884;8.666;2023-02-08T13:10:55;4.60;96.10
3226;DHT22;1625;49.884;8.666;2023-02-08T13:17:56;4.70;96.10
3226;DHT22;1625;49.884;8.666;2023-02-08T13:24:38;4.90;95.00
3226;DHT22;1625;49.884;8.666;2023-02-08T13:27:04;4.90;94.20
3226;DHT22;1625;49.884;8.666;2023-02-08T13:29:38;4.90;94.30
3226;DHT22;1625;49.884;8.666;2023-02-08T13:32:20;5.00;95.00
3226;DHT22;1625;49.884;8.666;2023-02-08T13:34:57;5.10;95.10
3226;DHT22;1625;49.884;8.666;2023-02-08T13:37:27;5.20;94.60
3226;DHT22;1625;49.884;8.666;2023-02-08T13:42:46;5.20;94.30
3226;DHT22;1625;49.884;8.666;2023-02-08T13:45:29;5.30;94.90
3226;DHT22;1625;49.884;8.666;2023-02-08T13:48:16;5.40;94.60
3226;DHT22;1625;49.884;8.666;2023-02-08T13:50:50;5.40;94.10
3226;DHT22;1625;49.884;8.666;2023-02-08T13:56:12;5.50;94.60
3226;DHT22;1625;49.884;8.666;2023-02-08T13:59:01;5.50;93.40
3226;DHT22;1625;49.884;8.666;2023-02-08T14:01:32;5.50;93.20
3226;DHT22;1625;49.884;8.666;2023-02-08T14:09:14;5.70;92.90
3226;DHT22;1625;49.884;8.666;2023-02-08T14:12:01;5.70;93.30
3226;DHT22;1625;49.884;8.666;2023-02-08T14:14:31;5.80;94.50
3226;DHT22;1625;49.884;8.666;2023-02-08T14:19:39;5.80;92.40
3226;DHT22;1625;49.884;8.666;2023-02-08T14:25:01;5.90;93.30
3226;DHT22;1625;49.884;8.666;2023-02-08T14:27:42;5.80;93.10
3226;DHT22;1625;49.884;8.666;2023-02-08T14:32:45;5.80;92.50
3226;DHT22;1625;49.884;8.666;2023-02-08T14:35:17;5.70;92.40
3226;DHT22;1625;49.884;8.666;2023-02-08T14:37:45;5.60;92.60
3226;DHT22;1625;49.884;8.666;2023-02-08T14:59:35;5.30;93.10
3226;DHT22;1625;49.884;8.666;2023-02-08T15:02:03;5.30;92.50
3226;DHT22;1625;49.884;8.666;2023-02-08T15:04:42;5.30;92.90
3226;DHT22;1625;49.884;8.666;2023-02-08T15:09:50;5.30;91.40
3226;DHT22;1625;49.884;8.666;2023-02-08T15:12:28;5.30;91.70
3226;DHT22;1625;49.884;8.666;2023-02-08T15:14:56;5.30;92.00
3226;DHT22;1625;49.884;8.666;2023-02-08T15:19:58;5.20;91.50
3226;DHT22;1625;49.884;8.666;2023-02-08T15:26:21;5.20;91.80
3226;DHT22;1625;49.884;8.666;2023-02-08T15:32:13;5.20;92.30
3226;DHT22;1625;49.884;8.666;2023-02-08T15:35:04;5.10;92.50
3226;DHT22;1625;49.884;8.666;2023-02-08T15:41:07;5.00;92.20
3226;DHT22;1625;49.884;8.666;2023-02-08T15:43:33;4.90;92.70
3226;DHT22;1625;49.884;8.666;2023-02-08T15:46:03;4.90;93.10
3226;DHT22;1625;49.884;8.666;2023-02-08T15:48:30;4.90;92.60
3226;DHT22;1625;49.884;8.666;2023-02-08T15:51:17;4.80;92.80
3226;DHT22;1625;49.884;8.666;2023-02-08T15:54:42;4.90;92.60
3226;DHT22;1625;49.884;8.666;2023-02-08T15:59:58;4.70;92.50
3226;DHT22;1625;49.884;8.666;2023-02-08T16:05:31;4.60;92.60
3226;DHT22;1625;49.884;8.666;2023-02-08T16:08:03;4.60;92.90
3226;DHT22;1625;49.884;8.666;2023-02-08T16:10:45;4.60;93.00
3226;DHT22;1625;49.884;8.666;2023-02-08T16:13:21;4.50;93.50
3226;DHT22;1625;49.884;8.666;2023-02-08T16:15:50;4.40;93.60
3226;DHT22;1625;49.884;8.666;2023-02-08T16:18:39;4.40;93.70
3226;DHT22;1625;49.884;8.666;2023-02-08T16:21:26;4.30;93.50
3226;DHT22;1625;49.884;8.666;2023-02-08T16:24:04;4.20;93.60
3226;DHT22;1625;49.884;8.666;2023-02-08T16:26:44;4.10;93.90
3226;DHT22;1625;49.884;8.666;2023-02-08T16:29:29;4.10;94.10
3226;DHT22;1625;49.884;8.666;2023-02-08T16:37:53;3.80;94.40
3226;DHT22;1625;49.884;8.666;2023-02-08T16:40:55;3.70;94.90
3226;DHT22;1625;49.884;8.666;2023-02-08T16:43:28;3.60;95.10
3226;DHT22;1625;49.884;8.666;2023-02-08T16:46:20;3.50;95.30
3226;DHT22;1625;49.884;8.666;2023-02-08T16:51:30;3.50;95.40
3226;DHT22;1625;49.884;8.666;2023-02-08T16:54:34;3.40;95.80
3226;DHT22;1625;49.884;8.666;2023-02-08T16:57:02;3.40;95.90
3226;DHT22;1625;49.884;8.666;2023-02-08T16:59:40;3.30;95.90
3226;DHT22;1625;49.884;8.666;2023-02-08T17:05:49;3.30;96.00
3226;DHT22;1625;49.884;8.666;2023-02-08T17:08:35;3.20;96.20
3226;DHT22;1625;49.884;8.666;2023-02-08T17:11:23;3.10;95.90
3226;DHT22;1625;49.884;8.666;2023-02-08T17:14:05;3.10;96.30
3226;DHT22;1625;49.884;8.666;2023-02-08T17:16:43;3.00;96.90
3226;DHT22;1625;49.884;8.666;2023-02-08T17:19:16;3.00;97.20
3226;DHT22;1625;49.884;8.666;2023-02-08T17:21:57;2.90;97.20
3226;DHT22;1625;49.884;8.666;2023-02-08T17:24:23;2.90;97.10
3226;DHT22;1625;49.884;8.666;2023-02-08T17:27:19;2.80;97.20
3226;DHT22;1625;49.884;8.666;2023-02-08T17:29:47;2.80;97.20
3226;DHT22;1625;49.884;8.666;2023-02-08T17:32:12;2.70;97.50
3226;DHT22;1625;49.884;8.666;2023-02-08T17:34:38;2.70;97.80
3226;DHT22;1625;49.884;8.666;2023-02-08T17:37:04;2.60;98.30
3226;DHT22;1625;49.884;8.666;2023-02-08T17:39:29;2.60;98.20
3226;DHT22;1625;49.884;8.666;2023-02-08T17:42:23;2.60;98.70
3226;DHT22;1625;49.884;8.666;2023-02-08T17:44:48;2.50;99.20
3226;DHT22;1625;49.884;8.666;2023-02-08T17:47:44;2.50;99.60
3226;DHT22;1625;49.884;8.666;2023-02-08T17:50:13;2.40;99.50
3226;DHT22;1625;49.884;8.666;2023-02-08T17:52:46;2.40;99.30
3226;DHT22;1625;49.884;8.666;2023-02-08T17:55:13;2.40;99.10
3226;DHT22;1625;49.884;8.666;2023-02-08T17:57:39;2.40;99.30
3226;DHT22;1625;49.884;8.666;2023-02-08T18:00:11;2.30;99.80
3226;DHT22;1625;49.884;8.666;2023-02-08T18:02:47;2.30;99.90
3226;DHT22;1625;49.884;8.666;2023-02-08T18:05:17;2.30;99.90
3226;DHT22;1625;49.884;8.666;2023-02-08T18:07:43;2.20;99.90
3226;DHT22;1625;49.884;8.666;2023-02-08T18:10:10;2.20;99.90
3226;DHT22;1625;49.884;8.666;2023-02-08T18:12:36;2.10;99.90
3226;DHT22;1625;49.884;8.666;2023-02-08T18:15:12;2.10;99.90
3226;DHT22;1625;49.884;8.666;2023-02-08T18:17:39;2.10;99.90
3226;DHT22;1625;49.884;8.666;2023-02-08T18:20:05;2.10;99.90
3226;DHT22;1625;49.884;8.666;2023-02-08T18:22:34;2.10;99.90
3226;DHT22;1625;49.884;8.666;2023-02-08T18:30:14;1.90;99.90
3226;DHT22;1625;49.884;8.666;2023-02-08T18:35:07;2.00;99.90
3226;DHT22;1625;49.884;8.666;2023-02-08T18:37:33;2.00;99.90
3226;DHT22;1625;49.884;8.666;2023-02-08T18:39:59;2.00;99.90
3226;DHT22;1625;49.884;8.666;2023-02-08T18:42:25;2.00;99.90
3226;DHT22;1625;49.884;8.666;2023-02-08T18:44:50;2.00;99.90
3226;DHT22;1625;49.884;8.666;2023-02-08T18:47:16;2.00;99.90
3226;DHT22;1625;49.884;8.666;2023-02-08T18:49:42;2.10;99.90
3226;DHT22;1625;49.884;8.666;2023-02-08T18:52:09;2.00;99.90
3226;DHT22;1625;49.884;8.666;2023-02-08T18:54:36;2.00;99.90
3226;DHT22;1625;49.884;8.666;2023-02-08T18:57:02;2.00;99.90
3226;DHT22;1625;49.884;8.666;2023-02-08T18:59:31;1.90;99.90
3226;DHT22;1625;49.884;8.666;2023-02-08T19:01:58;1.90;99.90
3226;DHT22;1625;49.884;8.666;2023-02-08T19:04:23;1.90;99.90
3226;DHT22;1625;49.884;8.666;2023-02-08T19:06:49;1.80;99.90
3226;DHT22;1625;49.884;8.666;2023-02-08T19:09:14;1.70;99.90
3226;DHT22;1625;49.884;8.666;2023-02-08T19:11:40;1.70;99.90
3226;DHT22;1625;49.884;8.666;2023-02-08T19:14:11;1.70;99.90
3226;DHT22;1625;49.884;8.666;2023-02-08T19:16:37;1.70;99.90
3226;DHT22;1625;49.884;8.666;2023-02-08T19:19:04;1.70;99.90
3226;DHT22;1625;49.884;8.666;2023-02-08T19:21:30;1.70;99.90
3226;DHT22;1625;49.884;8.666;2023-02-08T19:23:56;1.70;99.90
3226;DHT22;1625;49.884;8.666;2023-02-08T19:26:26;1.80;99.90
3226;DHT22;1625;49.884;8.666;2023-02-08T19:28:55;1.70;99.90
3226;DHT22;1625;49.884;8.666;2023-02-08T19:31:25;1.70;99.90
3226;DHT22;1625;49.884;8.666;2023-02-08T19:33:52;1.70;99.90
3226;DHT22;1625;49.884;8.666;2023-02-08T19:36:24;1.70;99.90
3226;DHT22;1625;49.884;8.666;2023-02-08T19:38:51;1.70;99.90
3226;DHT22;1625;49.884;8.666;2023-02-08T19:41:24;1.70;99.90
3226;DHT22;1625;49.884;8.666;2023-02-08T19:43:50;1.60;99.90
3226;DHT22;1625;49.884;8.666;2023-02-08T19:46:18;1.60;99.90
3226;DHT22;1625;49.884;8.666;2023-02-08T19:48:49;1.50;99.90
3226;DHT22;1625;49.884;8.666;2023-02-08T19:51:15;1.50;99.90
3226;DHT22;1625;49.884;8.666;2023-02-08T19:53:41;1.50;99.90
3226;DHT22;1625;49.884;8.666;2023-02-08T19:56:10;1.40;99.90
3226;DHT22;1625;49.884;8.666;2023-02-08T19:58:36;1.40;99.90
3226;DHT22;1625;49.884;8.666;2023-02-08T20:01:10;1.40;99.90
3226;DHT22;1625;49.884;8.666;2023-02-08T20:03:36;1.40;99.90
3226;DHT22;1625;49.884;8.666;2023-02-08T20:06:02;1.40;99.90
3226;DHT22;1625;49.884;8.666;2023-02-08T20:08:27;1.40;99.90
3226;DHT22;1625;49.884;8.666;2023-02-08T20:10:53;1.30;99.90
3226;DHT22;1625;49.884;8.666;2023-02-08T20:13:19;1.30;99.90
3226;DHT22;1625;49.884;8.666;2023-02-08T20:15:45;1.30;99.90
3226;DHT22;1625;49.884;8.666;2023-02-08T20:18:13;1.30;99.90
3226;DHT22;1625;49.884;8.666;2023-02-08T20:44:43;0.80;99.90
